Critz, Virginia
Current Conditions -  °F | °C
As of 2:35 PM on Friday 24 Oct 2014 (Local Time) from KMTV Reporting Station
Clear Clear  
Wind Chill: 69°   Ceiling: Unl
Heat Index: 69°   Visibility: 10mi
Dew Point: 39°   Wind: 3mph
Humidity: 34%   Direction: 10°N
Pressure: 30.01"   Gusts: NA
Location:  36.63°N, 80.14°W
Report Text: KMTV 241835Z AUTO 01003KT 10SM CLR 21/04 A3001 RMK AO2 T02060041
Loading
Personal Weather Stations






























Interactive Weather Map
Tropical Storm Tracking
New forecast layout! Learn more

10-Day Weather Forecast

Advertisements
Track Severe Weather on mobile